createdAt,value
2022-09-23T00:01:12.665Z,14.98
2022-09-23T00:03:42.074Z,14.90
2022-09-23T00:06:11.801Z,14.83
2022-09-23T00:08:40.023Z,15.34
2022-09-23T00:11:17.369Z,15.30
2022-09-23T00:13:46.843Z,15.32
2022-09-23T00:16:17.065Z,15.29
2022-09-23T00:18:44.416Z,15.11
2022-09-23T00:21:13.856Z,14.88
2022-09-23T00:23:42.955Z,14.82
2022-09-23T00:26:12.495Z,14.91
2022-09-23T00:28:40.560Z,15.06
2022-09-23T00:31:09.889Z,14.79
2022-09-23T00:33:36.843Z,14.71
2022-09-23T00:36:07.075Z,14.73
2022-09-23T00:38:34.248Z,14.80
2022-09-23T00:41:02.256Z,14.79
2022-09-23T00:43:38.186Z,14.97
2022-09-23T00:46:07.926Z,14.81
2022-09-23T00:48:35.671Z,14.69
2022-09-23T00:51:02.330Z,14.68
2022-09-23T00:53:29.348Z,14.66
2022-09-23T00:56:04.167Z,14.76
2022-09-23T00:58:34.263Z,14.64
2022-09-23T01:01:02.356Z,14.67
2022-09-23T01:03:29.605Z,14.88
2022-09-23T01:05:57.306Z,14.63
2022-09-23T01:08:25.156Z,14.58
2022-09-23T01:10:57.820Z,14.51
2022-09-23T01:13:52.001Z,14.57
2022-09-23T01:16:45.426Z,14.69
2022-09-23T01:19:30.870Z,14.57
2022-09-23T01:22:06.697Z,14.50
2022-09-23T01:24:59.640Z,14.67
2022-09-23T01:27:55.899Z,14.89
2022-09-23T01:30:44.107Z,14.66
2022-09-23T01:33:29.598Z,14.47
2022-09-23T01:36:13.372Z,14.57
2022-09-23T01:38:43.865Z,14.67
2022-09-23T01:41:30.070Z,14.78
2022-09-23T01:44:08.780Z,14.87
2022-09-23T01:46:41.692Z,14.94
2022-09-23T01:49:25.318Z,14.97
2022-09-23T01:52:03.996Z,14.96
2022-09-23T01:54:41.064Z,15.26
2022-09-23T01:57:31.915Z,15.10
2022-09-23T02:00:11.750Z,14.93
2022-09-23T02:02:49.685Z,15.01
2022-09-23T02:05:26.096Z,14.84
2022-09-23T02:08:14.004Z,14.72
2022-09-23T02:10:56.480Z,14.63
2022-09-23T02:13:40.032Z,14.57
2022-09-23T02:16:21.840Z,14.62
2022-09-23T02:18:58.174Z,14.70
2022-09-23T02:21:33.905Z,14.77
2022-09-23T02:24:34.867Z,14.80
2022-09-23T02:27:30.379Z,14.38
2022-09-23T02:30:17.203Z,14.36
2022-09-23T02:33:07.924Z,14.64
2022-09-23T02:35:44.167Z,14.47
2022-09-23T02:38:20.636Z,14.49
2022-09-23T02:40:52.986Z,14.40
2022-09-23T02:43:24.048Z,14.31
2022-09-23T02:45:52.333Z,14.22
2022-09-23T02:48:27.097Z,14.14
2022-09-23T02:50:54.465Z,13.96
2022-09-23T02:53:24.213Z,14.07
2022-09-23T02:55:51.169Z,14.05
2022-09-23T02:58:17.946Z,14.33
2022-09-23T03:01:11.604Z,14.19
2022-09-23T03:03:44.302Z,14.14
2022-09-23T03:06:47.741Z,13.99
2022-09-23T03:09:28.001Z,14.08
2022-09-23T03:12:06.068Z,14.22
2022-09-23T03:14:40.281Z,14.34
2022-09-23T03:17:48.886Z,14.27
2022-09-23T03:20:57.891Z,14.08
2022-09-23T03:23:31.372Z,13.79
2022-09-23T03:26:02.478Z,13.69
2022-09-23T03:28:29.770Z,13.61
2022-09-23T03:31:00.106Z,13.67
2022-09-23T03:33:28.993Z,13.71
2022-09-23T03:36:23.927Z,13.82
2022-09-23T03:38:54.787Z,13.53
2022-09-23T03:41:33.169Z,13.28
2022-09-23T03:44:00.169Z,13.49
2022-09-23T03:46:30.073Z,13.52
2022-09-23T03:49:06.556Z,13.53
2022-09-23T03:51:33.171Z,13.66
2022-09-23T03:53:59.801Z,13.61
2022-09-23T03:56:26.367Z,13.66
2022-09-23T03:58:53.041Z,13.78
2022-09-23T04:01:19.666Z,13.66
2022-09-23T04:03:46.465Z,13.45
2022-09-23T04:06:13.425Z,13.60
2022-09-23T04:08:40.046Z,13.67
2022-09-23T04:11:06.851Z,13.79
2022-09-23T04:13:33.767Z,13.66
2022-09-23T04:16:00.586Z,13.69
2022-09-23T04:18:27.289Z,13.62
2022-09-23T04:20:58.833Z,13.67
2022-09-23T04:23:27.319Z,13.68
2022-09-23T04:25:54.020Z,13.42
2022-09-23T04:28:21.524Z,13.40
2022-09-23T04:30:49.046Z,13.64
2022-09-23T04:33:17.019Z,13.55
2022-09-23T04:35:43.558Z,13.79
2022-09-23T04:38:13.325Z,13.67
2022-09-23T04:40:40.036Z,13.64
2022-09-23T04:43:10.547Z,13.56
2022-09-23T04:45:39.520Z,13.31
2022-09-23T04:48:06.087Z,13.09
2022-09-23T04:50:33.998Z,13.21
2022-09-23T04:53:01.915Z,13.02
2022-09-23T04:55:28.888Z,13.05
2022-09-23T04:57:55.637Z,13.14
2022-09-23T05:00:23.407Z,13.18
2022-09-23T05:02:50.879Z,13.20
2022-09-23T05:05:23.400Z,13.32
2022-09-23T05:07:51.092Z,13.37
2022-09-23T05:10:17.923Z,13.53
2022-09-23T05:12:44.598Z,13.36
2022-09-23T05:15:11.455Z,13.59
2022-09-23T05:17:38.043Z,13.42
2022-09-23T05:20:05.431Z,13.54
2022-09-23T05:22:32.307Z,13.23
2022-09-23T05:25:00.369Z,13.13
2022-09-23T05:27:27.334Z,13.20
2022-09-23T05:29:54.021Z,13.37
2022-09-23T05:32:21.301Z,13.49
2022-09-23T05:34:47.926Z,13.50
2022-09-23T05:37:14.480Z,13.39
2022-09-23T05:39:41.068Z,13.36
2022-09-23T05:42:09.364Z,13.61
2022-09-23T05:44:36.082Z,13.52
2022-09-23T05:47:02.899Z,13.55
2022-09-23T05:49:42.841Z,13.71
2022-09-23T05:52:17.260Z,13.96
2022-09-23T05:54:43.846Z,13.84
2022-09-23T05:57:10.437Z,13.91
2022-09-23T05:59:38.142Z,14.00
2022-09-23T06:02:04.964Z,14.08
2022-09-23T06:04:31.657Z,14.09
2022-09-23T06:07:02.779Z,14.18
2022-09-23T06:09:34.105Z,14.45
2022-09-23T06:12:03.820Z,14.62
2022-09-23T06:14:30.401Z,14.52
2022-09-23T06:16:56.961Z,14.69
2022-09-23T06:19:23.589Z,14.57
2022-09-23T06:21:50.191Z,14.78
2022-09-23T06:24:21.357Z,14.69
2022-09-23T06:26:49.571Z,14.76
2022-09-23T06:29:16.219Z,14.90
2022-09-23T06:31:43.531Z,14.95
2022-09-23T06:34:14.554Z,14.95
2022-09-23T06:36:46.139Z,15.09
2022-09-23T06:39:14.702Z,15.27
2022-09-23T06:41:41.407Z,15.22
2022-09-23T06:44:08.078Z,15.39
2022-09-23T06:46:37.027Z,15.55
2022-09-23T06:49:03.771Z,15.65
2022-09-23T06:51:30.477Z,15.84
2022-09-23T06:53:56.995Z,15.77
2022-09-23T06:56:23.810Z,15.78
2022-09-23T06:58:52.261Z,15.75
2022-09-23T07:01:19.825Z,15.88
2022-09-23T07:03:49.943Z,15.98
2022-09-23T07:06:17.295Z,16.06
2022-09-23T07:08:47.089Z,16.01
2022-09-23T07:11:15.449Z,16.23
2022-09-23T07:13:43.010Z,16.45
2022-09-23T07:16:11.717Z,16.40
2022-09-23T07:18:39.004Z,16.25
2022-09-23T07:21:15.481Z,16.31
2022-09-23T07:23:47.444Z,16.34
2022-09-23T07:26:15.786Z,16.60
2022-09-23T07:28:42.777Z,16.94
2022-09-23T07:31:12.351Z,17.23
2022-09-23T07:33:43.839Z,16.89
2022-09-23T07:36:14.137Z,16.77
2022-09-23T07:38:45.119Z,16.70
2022-09-23T07:41:16.058Z,17.23
2022-09-23T07:43:44.186Z,17.23
2022-09-23T07:46:15.111Z,17.38
2022-09-23T07:48:42.955Z,17.31
2022-09-23T07:51:12.676Z,17.42
2022-09-23T07:53:39.531Z,17.53
2022-09-23T07:56:06.755Z,17.36
2022-09-23T07:58:34.781Z,17.31
2022-09-23T08:01:06.819Z,17.35
2022-09-23T08:03:33.702Z,17.51
2022-09-23T08:06:08.087Z,17.58
2022-09-23T08:08:35.686Z,17.62
2022-09-23T08:11:07.749Z,18.27
2022-09-23T08:13:34.594Z,18.51
2022-09-23T08:16:01.562Z,18.52
2022-09-23T08:18:28.475Z,18.34
2022-09-23T08:20:55.079Z,18.31
2022-09-23T08:23:21.834Z,18.45
2022-09-23T08:25:48.517Z,18.58
2022-09-23T08:28:18.531Z,19.11
2022-09-23T08:30:49.002Z,19.08
2022-09-23T08:33:20.967Z,18.93
2022-09-23T08:35:49.319Z,18.80
2022-09-23T08:38:16.543Z,18.69
2022-09-23T08:40:47.513Z,18.89
2022-09-23T08:43:33.099Z,18.96
2022-09-23T08:46:06.254Z,19.41
2022-09-23T08:48:38.517Z,19.60
2022-09-23T08:51:11.129Z,19.55
2022-09-23T08:53:39.281Z,19.64
2022-09-23T08:56:26.210Z,19.69
2022-09-23T08:59:29.155Z,19.65
2022-09-23T09:02:00.328Z,19.79
2022-09-23T09:04:39.361Z,20.23
2022-09-23T09:07:35.078Z,20.38
2022-09-23T09:10:18.721Z,20.64
2022-09-23T09:12:48.251Z,20.69
2022-09-23T09:15:26.680Z,20.78
2022-09-23T09:18:11.322Z,20.64
2022-09-23T09:20:48.978Z,20.54
2022-09-23T09:23:32.377Z,20.76
2022-09-23T09:26:01.952Z,20.89
2022-09-23T09:28:35.779Z,20.94
2022-09-23T09:31:16.435Z,21.20
2022-09-23T09:33:58.361Z,21.14
2022-09-23T09:36:45.106Z,21.11
2022-09-23T09:39:13.370Z,21.28
2022-09-23T09:41:48.700Z,21.37
2022-09-23T09:44:37.033Z,21.42
2022-09-23T09:47:27.054Z,21.47
2022-09-23T09:50:09.060Z,21.52
2022-09-23T09:52:40.706Z,21.63
2022-09-23T09:55:13.473Z,21.55
2022-09-23T09:57:44.143Z,21.81
2022-09-23T10:00:46.102Z,21.76
2022-09-23T10:03:20.339Z,21.87
2022-09-23T10:05:49.865Z,21.99
2022-09-23T10:08:37.797Z,22.18
2022-09-23T10:11:18.909Z,22.23
2022-09-23T10:14:14.277Z,22.14
2022-09-23T10:16:42.095Z,22.31
2022-09-23T10:19:18.549Z,22.30
2022-09-23T10:21:52.771Z,22.49
2022-09-23T10:24:25.951Z,22.52
2022-09-23T10:27:00.903Z,22.90
2022-09-23T10:29:39.268Z,22.88
2022-09-23T10:32:27.446Z,22.82
2022-09-23T10:35:09.256Z,22.68
2022-09-23T10:37:40.343Z,22.82
2022-09-23T10:40:37.893Z,23.22
2022-09-23T10:43:49.160Z,23.66
2022-09-23T10:46:39.085Z,24.19
2022-09-23T10:49:26.381Z,24.28
2022-09-23T10:51:56.022Z,24.62
2022-09-23T10:54:32.526Z,24.89
2022-09-23T10:57:24.412Z,25.14
2022-09-23T11:00:23.591Z,25.33
2022-09-23T11:03:33.802Z,25.63
2022-09-23T11:06:05.478Z,25.75
2022-09-23T11:08:59.899Z,26.02
2022-09-23T11:11:53.202Z,26.01
2022-09-23T11:14:25.678Z,26.04
2022-09-23T11:17:25.995Z,26.28
2022-09-23T11:20:16.945Z,26.56
2022-09-23T11:22:53.277Z,26.50
2022-09-23T11:25:39.581Z,26.64
2022-09-23T11:28:12.064Z,26.64
2022-09-23T11:30:46.243Z,26.66
2022-09-23T11:34:03.737Z,26.66
2022-09-23T11:36:52.345Z,26.90
2022-09-23T11:39:29.810Z,27.05
2022-09-23T11:41:59.362Z,26.94
2022-09-23T11:44:38.210Z,26.91
2022-09-23T11:47:10.870Z,27.04
2022-09-23T11:49:43.019Z,27.06
2022-09-23T11:52:19.709Z,27.17
2022-09-23T11:54:54.663Z,27.08
2022-09-23T11:57:53.453Z,26.72
2022-09-23T12:00:26.710Z,26.42
2022-09-23T12:03:18.594Z,26.03
2022-09-23T12:05:51.396Z,25.88
2022-09-23T12:08:25.146Z,25.70
2022-09-23T12:11:01.692Z,25.50
2022-09-23T12:13:40.783Z,25.30
2022-09-23T12:16:28.825Z,25.18
2022-09-23T12:19:04.563Z,24.93
2022-09-23T12:21:51.624Z,24.76
2022-09-23T12:24:52.491Z,24.57
2022-09-23T12:27:28.369Z,24.31
2022-09-23T12:30:01.584Z,24.40
2022-09-23T12:32:29.480Z,24.34
2022-09-23T12:34:56.608Z,24.20
2022-09-23T12:37:27.776Z,24.22
2022-09-23T12:39:59.762Z,24.10
2022-09-23T12:42:30.893Z,23.99
2022-09-23T12:45:32.760Z,23.89
2022-09-23T12:48:04.343Z,23.85
2022-09-23T12:50:51.151Z,23.77
2022-09-23T12:53:36.188Z,23.74
2022-09-23T12:56:16.046Z,23.75
2022-09-23T12:58:43.199Z,23.73
2022-09-23T13:01:17.228Z,23.56
2022-09-23T13:04:09.357Z,23.61
2022-09-23T13:07:06.636Z,23.64
2022-09-23T13:09:43.111Z,23.50
2022-09-23T13:12:39.195Z,23.52
2022-09-23T13:15:16.340Z,23.54
2022-09-23T13:17:43.130Z,23.41
2022-09-23T13:20:22.442Z,23.50
2022-09-23T13:22:49.505Z,23.41
2022-09-23T13:25:21.967Z,23.52
2022-09-23T13:27:54.374Z,23.39
2022-09-23T13:30:26.497Z,23.39
2022-09-23T13:33:14.280Z,23.42
2022-09-23T13:35:46.132Z,23.42
2022-09-23T13:38:27.008Z,23.44
2022-09-23T13:41:14.808Z,23.50
2022-09-23T13:43:43.065Z,23.41
2022-09-23T13:46:13.962Z,23.37
2022-09-23T13:48:44.346Z,23.29
2022-09-23T13:51:16.431Z,23.32
2022-09-23T13:53:43.049Z,23.34
2022-09-23T13:56:14.848Z,23.38
2022-09-23T13:58:42.083Z,23.37
2022-09-23T14:01:33.772Z,23.40
2022-09-23T14:04:02.443Z,23.26
2022-09-23T14:06:38.476Z,23.28
2022-09-23T14:09:06.490Z,23.11
2022-09-23T14:11:35.483Z,23.18
2022-09-23T14:14:07.734Z,23.29
2022-09-23T14:16:39.726Z,23.29
2022-09-23T14:19:09.371Z,23.29
2022-09-23T14:21:38.505Z,23.25
2022-09-23T14:24:11.162Z,23.19
2022-09-23T14:26:39.548Z,23.15
2022-09-23T14:29:12.117Z,23.17
2022-09-23T14:31:39.519Z,23.20
2022-09-23T14:34:06.281Z,23.25
2022-09-23T14:36:55.014Z,23.18
2022-09-23T14:39:22.793Z,23.12
2022-09-23T14:41:49.649Z,23.15
2022-09-23T14:44:23.160Z,23.13
2022-09-23T14:46:58.163Z,23.16
2022-09-23T14:49:25.267Z,23.15
2022-09-23T14:52:06.897Z,23.19
2022-09-23T14:54:52.164Z,23.17
2022-09-23T14:57:18.666Z,23.13
2022-09-23T14:59:59.209Z,23.16
2022-09-23T15:02:34.821Z,23.07
2022-09-23T15:05:30.446Z,23.09
2022-09-23T15:08:01.029Z,22.98
2022-09-23T15:10:37.487Z,23.05
2022-09-23T15:13:06.325Z,23.12
2022-09-23T15:15:33.342Z,23.14
2022-09-23T15:18:08.722Z,23.18
2022-09-23T15:20:36.092Z,23.10
2022-09-23T15:23:03.278Z,23.12
2022-09-23T15:25:40.763Z,23.08
2022-09-23T15:28:15.295Z,23.10
2022-09-23T15:30:42.051Z,23.08
2022-09-23T15:33:13.291Z,23.11
2022-09-23T15:35:45.457Z,23.03
2022-09-23T15:38:12.306Z,22.98
2022-09-23T15:43:21.505Z,22.99
2022-09-23T15:46:08.152Z,22.92
2022-09-23T15:48:43.302Z,22.88
2022-09-23T15:51:14.838Z,22.85
2022-09-23T15:53:41.391Z,22.85
2022-09-23T15:56:07.972Z,22.93
2022-09-23T15:58:34.814Z,22.87
2022-09-23T16:01:01.761Z,22.80
2022-09-23T16:03:29.035Z,22.80
2022-09-23T16:06:01.098Z,22.78
2022-09-23T16:08:29.459Z,22.80
2022-09-23T16:10:56.709Z,22.80
2022-09-23T16:13:23.351Z,22.78
2022-09-23T16:15:50.228Z,22.75
2022-09-23T16:18:17.189Z,22.75
2022-09-23T16:20:45.726Z,22.73
2022-09-23T16:23:18.712Z,22.70
2022-09-23T16:25:45.312Z,22.64
2022-09-23T16:28:11.846Z,22.56
2022-09-23T16:30:38.426Z,22.50
2022-09-23T16:33:05.064Z,22.51
2022-09-23T16:35:33.658Z,22.49
2022-09-23T16:38:00.476Z,22.41
2022-09-23T16:40:27.397Z,22.37
2022-09-23T16:42:55.911Z,22.41
2022-09-23T16:45:23.320Z,22.40
2022-09-23T16:47:51.526Z,22.36
2022-09-23T16:50:22.673Z,22.25
2022-09-23T16:52:56.205Z,22.19
2022-09-23T16:55:26.087Z,22.18
2022-09-23T16:57:54.127Z,22.06
2022-09-23T17:03:14.508Z,21.95
2022-09-23T17:05:41.047Z,21.90
2022-09-23T17:08:07.796Z,21.97
2022-09-23T17:10:34.433Z,21.84
2022-09-23T17:13:01.085Z,21.85
2022-09-23T17:15:27.674Z,21.74
2022-09-23T17:17:55.651Z,21.69
2022-09-23T17:20:22.397Z,21.66
2022-09-23T17:22:49.031Z,21.60
2022-09-23T17:25:15.882Z,21.53
2022-09-23T17:27:42.822Z,21.53
2022-09-23T17:30:10.213Z,21.41
2022-09-23T17:32:38.231Z,21.33
2022-09-23T17:35:05.361Z,21.25
2022-09-23T17:37:33.035Z,21.29
2022-09-23T17:40:00.082Z,21.33
2022-09-23T17:42:27.697Z,21.24
2022-09-23T17:44:56.254Z,21.15
2022-09-23T17:47:23.299Z,21.07
2022-09-23T17:49:49.967Z,21.03
2022-09-23T17:52:19.636Z,21.14
2022-09-23T17:54:46.462Z,21.02
2022-09-23T17:57:13.021Z,20.97
2022-09-23T17:59:39.844Z,20.97
2022-09-23T18:02:06.519Z,20.88
2022-09-23T18:04:33.146Z,20.85
2022-09-23T18:06:59.753Z,20.96
2022-09-23T18:09:26.466Z,20.77
2022-09-23T18:11:53.181Z,20.75
2022-09-23T18:14:22.155Z,20.72
2022-09-23T18:16:52.704Z,20.59
2022-09-23T18:19:23.140Z,20.59
2022-09-23T18:21:52.431Z,20.55
2022-09-23T18:24:35.094Z,20.54
2022-09-23T18:27:01.858Z,20.49
2022-09-23T18:29:29.100Z,20.42
2022-09-23T18:31:55.940Z,20.52
2022-09-23T18:34:23.707Z,20.40
2022-09-23T18:36:51.715Z,20.39
2022-09-23T18:39:18.428Z,20.38
2022-09-23T18:41:45.052Z,20.36
2022-09-23T18:44:11.725Z,20.31
2022-09-23T18:46:38.379Z,20.33
2022-09-23T18:49:23.554Z,20.25
2022-09-23T18:51:55.917Z,20.25
2022-09-23T18:54:24.448Z,20.16
2022-09-23T18:56:54.353Z,20.18
2022-09-23T18:59:24.771Z,20.08
2022-09-23T19:01:54.908Z,20.01
2022-09-23T19:04:23.725Z,19.99
2022-09-23T19:06:50.431Z,19.93
2022-09-23T19:09:18.286Z,19.90
2022-09-23T19:11:45.493Z,19.91
2022-09-23T19:14:12.945Z,19.89
2022-09-23T19:16:40.710Z,19.85
2022-09-23T19:19:08.187Z,19.71
2022-09-23T19:21:35.189Z,19.64
2022-09-23T19:24:04.971Z,19.55
2022-09-23T19:26:35.055Z,19.48
2022-09-23T19:29:03.258Z,19.51
2022-09-23T19:31:39.222Z,19.47
2022-09-23T19:34:26.081Z,19.48
2022-09-23T19:36:57.497Z,19.40
2022-09-23T19:39:27.288Z,19.42
2022-09-23T19:41:55.856Z,19.42
2022-09-23T19:44:25.166Z,19.47
2022-09-23T19:46:56.343Z,19.40
2022-09-23T19:49:24.745Z,19.34
2022-09-23T19:51:51.687Z,19.41
2022-09-23T19:54:20.692Z,19.32
2022-09-23T19:56:48.759Z,19.31
2022-09-23T19:59:18.724Z,19.25
2022-09-23T20:01:46.479Z,19.24
2022-09-23T20:04:13.398Z,19.15
2022-09-23T20:06:41.070Z,18.99
2022-09-23T20:09:07.673Z,19.00
2022-09-23T20:11:34.660Z,18.98
2022-09-23T20:14:04.875Z,19.03
2022-09-23T20:16:36.856Z,19.00
2022-09-23T20:19:05.774Z,18.96
2022-09-23T20:21:33.849Z,18.87
2022-09-23T20:24:01.300Z,18.76
2022-09-23T20:26:46.583Z,18.87
2022-09-23T20:29:13.266Z,18.86
2022-09-23T20:31:42.777Z,18.80
2022-09-23T20:34:10.559Z,18.80
2022-09-23T20:36:38.981Z,18.64
2022-09-23T20:39:06.208Z,18.64
2022-09-23T20:41:36.740Z,18.63
2022-09-23T20:44:06.444Z,18.63
2022-09-23T20:46:34.273Z,18.56
2022-09-23T20:49:02.073Z,18.59
2022-09-23T20:51:28.859Z,18.56
2022-09-23T20:53:57.342Z,18.51
2022-09-23T20:56:25.198Z,18.44
2022-09-23T20:58:54.128Z,18.41
2022-09-23T21:01:21.825Z,18.39
2022-09-23T21:03:50.321Z,18.26
2022-09-23T21:06:19.052Z,18.18
2022-09-23T21:08:46.607Z,18.27
2022-09-23T21:11:17.954Z,18.34
2022-09-23T21:13:49.758Z,18.30
2022-09-23T21:16:18.570Z,18.20
2022-09-23T21:18:45.810Z,18.11
2022-09-23T21:21:14.126Z,18.16
2022-09-23T21:23:42.070Z,18.19
2022-09-23T21:26:13.905Z,18.20
2022-09-23T21:28:45.067Z,18.19
2022-09-23T21:31:22.637Z,18.19
2022-09-23T21:33:56.907Z,18.15
2022-09-23T21:36:24.846Z,18.15
2022-09-23T21:38:52.525Z,18.07
2022-09-23T21:41:19.759Z,18.12
2022-09-23T21:43:46.295Z,18.07
2022-09-23T21:46:15.528Z,18.02
2022-09-23T21:48:42.648Z,18.03
2022-09-23T21:51:20.973Z,18.07
2022-09-23T21:53:54.604Z,18.11
2022-09-23T21:56:29.410Z,18.05
2022-09-23T21:58:57.796Z,18.02
2022-09-23T22:01:27.097Z,18.02
2022-09-23T22:03:59.010Z,17.85
2022-09-23T22:06:27.630Z,17.94
2022-09-23T22:09:00.077Z,17.90
2022-09-23T22:11:48.086Z,17.89
2022-09-23T22:14:15.817Z,17.79
2022-09-23T22:16:43.238Z,17.83
2022-09-23T22:19:11.553Z,17.74
2022-09-23T22:21:40.358Z,17.78
2022-09-23T22:24:08.852Z,17.82
2022-09-23T22:26:45.558Z,17.74
2022-09-23T22:29:33.292Z,17.74
2022-09-23T22:32:20.026Z,17.76
2022-09-23T22:34:50.572Z,17.72
2022-09-23T22:37:26.232Z,17.69
2022-09-23T22:39:53.542Z,17.68
2022-09-23T22:42:23.368Z,17.75
2022-09-23T22:44:50.993Z,17.74
2022-09-23T22:47:18.597Z,17.70
2022-09-23T22:49:46.521Z,17.74
2022-09-23T22:52:16.071Z,17.69
2022-09-23T22:54:43.344Z,17.64
2022-09-23T22:57:10.979Z,17.76
2022-09-23T22:59:38.017Z,17.82
2022-09-23T23:02:06.611Z,17.72
2022-09-23T23:04:33.919Z,17.79
2022-09-23T23:07:00.502Z,17.74
2022-09-23T23:09:27.543Z,17.60
2022-09-23T23:11:55.452Z,17.60
2022-09-23T23:14:22.187Z,17.51
2022-09-23T23:16:48.782Z,17.46
2022-09-23T23:19:17.597Z,17.52
2022-09-23T23:21:45.297Z,17.44
2022-09-23T23:24:22.959Z,17.45
2022-09-23T23:26:50.915Z,17.47
2022-09-23T23:29:19.790Z,17.43
2022-09-23T23:31:46.882Z,17.35
2022-09-23T23:34:16.314Z,17.31
2022-09-23T23:36:44.324Z,17.33
2022-09-23T23:39:11.699Z,17.31
2022-09-23T23:41:39.560Z,17.32
2022-09-23T23:44:07.873Z,17.33
2022-09-23T23:46:36.554Z,17.30
2022-09-23T23:49:03.853Z,17.23
2022-09-23T23:51:31.018Z,17.22
2022-09-23T23:53:59.121Z,17.23
2022-09-23T23:56:27.285Z,17.21
2022-09-23T23:58:59.443Z,17.29
